sensor_id;sensor_type;location;lat;lon;timestamp;temperature;humidity
14210;DHT22;7188;56.070;12.698;2023-10-13T00:00:31;9.90;99.90
14210;DHT22;7188;56.070;12.698;2023-10-13T00:03:02;9.80;99.90
14210;DHT22;7188;56.070;12.698;2023-10-13T00:05:29;9.80;1.00
14210;DHT22;7188;56.070;12.698;2023-10-13T00:08:01;9.80;1.00
14210;DHT22;7188;56.070;12.698;2023-10-13T00:10:31;9.70;99.90
14210;DHT22;7188;56.070;12.698;2023-10-13T00:12:58;9.70;1.00
14210;DHT22;7188;56.070;12.698;2023-10-13T00:15:47;9.70;1.00
14210;DHT22;7188;56.070;12.698;2023-10-13T00:18:32;9.70;99.90
14210;DHT22;7188;56.070;12.698;2023-10-13T00:21:07;9.60;99.90
14210;DHT22;7188;56.070;12.698;2023-10-13T00:23:43;9.60;1.00
14210;DHT22;7188;56.070;12.698;2023-10-13T00:26:21;9.60;1.00
14210;DHT22;7188;56.070;12.698;2023-10-13T00:28:53;9.60;99.90
14210;DHT22;7188;56.070;12.698;2023-10-13T00:31:53;9.60;1.00
14210;DHT22;7188;56.070;12.698;2023-10-13T00:34:18;9.70;99.90
14210;DHT22;7188;56.070;12.698;2023-10-13T00:36:50;9.70;99.90
14210;DHT22;7188;56.070;12.698;2023-10-13T00:39:34;9.70;1.00
14210;DHT22;7188;56.070;12.698;2023-10-13T00:42:02;9.70;1.00
14210;DHT22;7188;56.070;12.698;2023-10-13T00:44:33;9.70;84.30
14210;DHT22;7188;56.070;12.698;2023-10-13T00:47:09;9.70;99.90
14210;DHT22;7188;56.070;12.698;2023-10-13T00:49:35;9.70;99.90
14210;DHT22;7188;56.070;12.698;2023-10-13T00:52:06;9.80;99.90
14210;DHT22;7188;56.070;12.698;2023-10-13T00:54:34;9.70;99.90
14210;DHT22;7188;56.070;12.698;2023-10-13T00:57:02;9.70;99.90
14210;DHT22;7188;56.070;12.698;2023-10-13T00:59:37;9.60;99.90
14210;DHT22;7188;56.070;12.698;2023-10-13T01:02:03;9.60;99.90
14210;DHT22;7188;56.070;12.698;2023-10-13T01:04:49;9.50;99.90
14210;DHT22;7188;56.070;12.698;2023-10-13T01:07:15;9.50;99.90
14210;DHT22;7188;56.070;12.698;2023-10-13T01:09:47;9.50;99.90
14210;DHT22;7188;56.070;12.698;2023-10-13T01:12:13;9.50;99.90
14210;DHT22;7188;56.070;12.698;2023-10-13T01:14:40;9.40;99.90
14210;DHT22;7188;56.070;12.698;2023-10-13T01:17:05;9.40;99.90
14210;DHT22;7188;56.070;12.698;2023-10-13T01:19:36;9.40;99.90
14210;DHT22;7188;56.070;12.698;2023-10-13T01:22:04;9.40;99.90
14210;DHT22;7188;56.070;12.698;2023-10-13T01:24:32;9.40;99.90
14210;DHT22;7188;56.070;12.698;2023-10-13T01:27:01;9.40;99.90
14210;DHT22;7188;56.070;12.698;2023-10-13T01:29:43;9.40;99.90
14210;DHT22;7188;56.070;12.698;2023-10-13T01:32:17;9.40;99.90
14210;DHT22;7188;56.070;12.698;2023-10-13T01:34:43;9.40;99.90
14210;DHT22;7188;56.070;12.698;2023-10-13T01:37:12;9.30;99.90
14210;DHT22;7188;56.070;12.698;2023-10-13T01:39:37;9.30;99.90
14210;DHT22;7188;56.070;12.698;2023-10-13T01:42:03;9.30;99.90
14210;DHT22;7188;56.070;12.698;2023-10-13T01:44:29;9.30;99.90
14210;DHT22;7188;56.070;12.698;2023-10-13T01:46:56;9.20;99.90
14210;DHT22;7188;56.070;12.698;2023-10-13T01:49:27;9.20;99.90
14210;DHT22;7188;56.070;12.698;2023-10-13T01:51:53;9.20;99.90
14210;DHT22;7188;56.070;12.698;2023-10-13T01:54:19;9.20;99.90
14210;DHT22;7188;56.070;12.698;2023-10-13T01:56:46;9.20;99.90
14210;DHT22;7188;56.070;12.698;2023-10-13T01:59:14;9.20;99.90
14210;DHT22;7188;56.070;12.698;2023-10-13T02:01:40;9.20;99.90
14210;DHT22;7188;56.070;12.698;2023-10-13T02:04:09;9.20;99.90
14210;DHT22;7188;56.070;12.698;2023-10-13T02:06:36;9.20;99.90
14210;DHT22;7188;56.070;12.698;2023-10-13T02:09:04;9.20;99.90
14210;DHT22;7188;56.070;12.698;2023-10-13T02:11:39;9.30;99.90
14210;DHT22;7188;56.070;12.698;2023-10-13T02:14:05;9.30;99.90
14210;DHT22;7188;56.070;12.698;2023-10-13T02:16:31;9.30;99.90
14210;DHT22;7188;56.070;12.698;2023-10-13T02:19:00;9.30;99.90
14210;DHT22;7188;56.070;12.698;2023-10-13T02:21:33;9.40;99.90
14210;DHT22;7188;56.070;12.698;2023-10-13T02:24:06;9.40;99.90
14210;DHT22;7188;56.070;12.698;2023-10-13T02:26:37;9.40;99.90
14210;DHT22;7188;56.070;12.698;2023-10-13T02:29:05;9.40;99.90
14210;DHT22;7188;56.070;12.698;2023-10-13T02:31:35;9.50;99.90
14210;DHT22;7188;56.070;12.698;2023-10-13T02:34:01;9.50;99.90
14210;DHT22;7188;56.070;12.698;2023-10-13T02:36:32;9.60;99.90
14210;DHT22;7188;56.070;12.698;2023-10-13T02:39:05;9.60;99.90
14210;DHT22;7188;56.070;12.698;2023-10-13T02:41:35;9.60;99.90
14210;DHT22;7188;56.070;12.698;2023-10-13T02:44:04;9.60;99.90
14210;DHT22;7188;56.070;12.698;2023-10-13T02:46:36;9.60;99.90
14210;DHT22;7188;56.070;12.698;2023-10-13T02:49:05;9.60;99.90
14210;DHT22;7188;56.070;12.698;2023-10-13T02:51:38;9.70;99.90
14210;DHT22;7188;56.070;12.698;2023-10-13T02:54:08;9.70;99.90
14210;DHT22;7188;56.070;12.698;2023-10-13T02:56:40;9.70;99.90
14210;DHT22;7188;56.070;12.698;2023-10-13T02:59:15;9.70;99.90
14210;DHT22;7188;56.070;12.698;2023-10-13T03:01:40;9.80;99.90
14210;DHT22;7188;56.070;12.698;2023-10-13T03:04:06;9.70;99.90
14210;DHT22;7188;56.070;12.698;2023-10-13T03:06:35;9.80;99.90
14210;DHT22;7188;56.070;12.698;2023-10-13T03:09:10;9.70;99.90
14210;DHT22;7188;56.070;12.698;2023-10-13T03:11:41;9.80;99.90
14210;DHT22;7188;56.070;12.698;2023-10-13T03:14:21;9.80;99.90
14210;DHT22;7188;56.070;12.698;2023-10-13T03:16:55;9.90;99.90
14210;DHT22;7188;56.070;12.698;2023-10-13T03:19:21;9.90;99.90
14210;DHT22;7188;56.070;12.698;2023-10-13T03:21:47;9.90;99.90
14210;DHT22;7188;56.070;12.698;2023-10-13T03:24:25;9.90;99.90
14210;DHT22;7188;56.070;12.698;2023-10-13T03:27:03;9.90;99.90
14210;DHT22;7188;56.070;12.698;2023-10-13T03:29:38;9.90;99.90
14210;DHT22;7188;56.070;12.698;2023-10-13T03:32:11;9.90;99.90
14210;DHT22;7188;56.070;12.698;2023-10-13T03:34:44;9.90;99.90
14210;DHT22;7188;56.070;12.698;2023-10-13T03:37:25;9.90;99.90
14210;DHT22;7188;56.070;12.698;2023-10-13T03:40:09;9.80;99.90
14210;DHT22;7188;56.070;12.698;2023-10-13T03:42:54;9.80;99.90
14210;DHT22;7188;56.070;12.698;2023-10-13T03:45:42;9.70;99.90
14210;DHT22;7188;56.070;12.698;2023-10-13T03:48:26;9.70;99.90
14210;DHT22;7188;56.070;12.698;2023-10-13T03:51:03;9.70;99.90
14210;DHT22;7188;56.070;12.698;2023-10-13T03:53:33;9.70;99.90
14210;DHT22;7188;56.070;12.698;2023-10-13T03:56:05;9.70;99.90
14210;DHT22;7188;56.070;12.698;2023-10-13T03:58:38;9.70;99.90
14210;DHT22;7188;56.070;12.698;2023-10-13T04:01:13;9.60;99.90
14210;DHT22;7188;56.070;12.698;2023-10-13T04:03:43;9.70;99.90
14210;DHT22;7188;56.070;12.698;2023-10-13T04:06:23;9.70;99.90
14210;DHT22;7188;56.070;12.698;2023-10-13T04:09:09;9.70;99.90
14210;DHT22;7188;56.070;12.698;2023-10-13T04:11:53;9.70;99.90
14210;DHT22;7188;56.070;12.698;2023-10-13T04:14:25;9.60;99.90
14210;DHT22;7188;56.070;12.698;2023-10-13T04:17:10;9.60;99.90
14210;DHT22;7188;56.070;12.698;2023-10-13T04:20:02;9.50;99.90
14210;DHT22;7188;56.070;12.698;2023-10-13T04:22:35;9.50;99.90
14210;DHT22;7188;56.070;12.698;2023-10-13T04:25:27;9.50;77.10
14210;DHT22;7188;56.070;12.698;2023-10-13T04:28:09;9.50;10.20
14210;DHT22;7188;56.070;12.698;2023-10-13T04:30:58;9.40;12.90
14210;DHT22;7188;56.070;12.698;2023-10-13T04:33:50;9.40;24.30
14210;DHT22;7188;56.070;12.698;2023-10-13T04:36:26;9.30;48.40
14210;DHT22;7188;56.070;12.698;2023-10-13T04:38:53;9.30;66.00
14210;DHT22;7188;56.070;12.698;2023-10-13T04:41:25;9.30;56.20
14210;DHT22;7188;56.070;12.698;2023-10-13T04:43:59;9.30;68.00
14210;DHT22;7188;56.070;12.698;2023-10-13T04:46:52;9.30;80.80
14210;DHT22;7188;56.070;12.698;2023-10-13T04:49:38;9.30;99.90
14210;DHT22;7188;56.070;12.698;2023-10-13T04:52:13;9.30;99.90
14210;DHT22;7188;56.070;12.698;2023-10-13T04:54:52;9.30;99.90
14210;DHT22;7188;56.070;12.698;2023-10-13T04:57:22;9.30;99.90
14210;DHT22;7188;56.070;12.698;2023-10-13T05:00:01;9.40;99.90
14210;DHT22;7188;56.070;12.698;2023-10-13T05:02:46;9.40;99.90
14210;DHT22;7188;56.070;12.698;2023-10-13T05:05:31;9.40;99.90
14210;DHT22;7188;56.070;12.698;2023-10-13T05:08:12;9.60;99.90
14210;DHT22;7188;56.070;12.698;2023-10-13T05:10:56;9.60;99.90
14210;DHT22;7188;56.070;12.698;2023-10-13T05:13:40;9.70;99.90
14210;DHT22;7188;56.070;12.698;2023-10-13T05:16:24;9.80;99.90
14210;DHT22;7188;56.070;12.698;2023-10-13T05:19:08;9.90;99.90
14210;DHT22;7188;56.070;12.698;2023-10-13T05:21:52;9.90;99.90
14210;DHT22;7188;56.070;12.698;2023-10-13T05:24:36;9.90;91.20
14210;DHT22;7188;56.070;12.698;2023-10-13T05:27:20;9.80;99.90
14210;DHT22;7188;56.070;12.698;2023-10-13T05:30:05;9.80;99.90
14210;DHT22;7188;56.070;12.698;2023-10-13T05:32:49;9.80;99.90
14210;DHT22;7188;56.070;12.698;2023-10-13T05:35:33;9.70;99.90
14210;DHT22;7188;56.070;12.698;2023-10-13T05:38:18;9.70;99.90
14210;DHT22;7188;56.070;12.698;2023-10-13T05:41:04;9.60;99.90
14210;DHT22;7188;56.070;12.698;2023-10-13T05:43:49;9.50;99.90
14210;DHT22;7188;56.070;12.698;2023-10-13T05:46:34;9.50;99.90
14210;DHT22;7188;56.070;12.698;2023-10-13T05:49:01;9.50;99.90
14210;DHT22;7188;56.070;12.698;2023-10-13T05:51:28;9.40;99.90
14210;DHT22;7188;56.070;12.698;2023-10-13T05:54:13;9.40;99.90
14210;DHT22;7188;56.070;12.698;2023-10-13T05:56:43;9.40;99.90
14210;DHT22;7188;56.070;12.698;2023-10-13T05:59:29;9.40;99.90
14210;DHT22;7188;56.070;12.698;2023-10-13T06:02:15;9.40;99.90
14210;DHT22;7188;56.070;12.698;2023-10-13T06:05:10;9.40;99.90
14210;DHT22;7188;56.070;12.698;2023-10-13T06:07:55;9.40;99.90
14210;DHT22;7188;56.070;12.698;2023-10-13T06:10:40;9.40;99.90
14210;DHT22;7188;56.070;12.698;2023-10-13T06:13:25;9.50;99.90
14210;DHT22;7188;56.070;12.698;2023-10-13T06:16:10;9.50;99.90
14210;DHT22;7188;56.070;12.698;2023-10-13T06:18:55;9.50;99.90
14210;DHT22;7188;56.070;12.698;2023-10-13T06:21:40;9.60;99.90
14210;DHT22;7188;56.070;12.698;2023-10-13T06:24:24;9.60;99.90
14210;DHT22;7188;56.070;12.698;2023-10-13T06:27:08;9.70;99.90
14210;DHT22;7188;56.070;12.698;2023-10-13T06:29:53;9.70;99.90
14210;DHT22;7188;56.070;12.698;2023-10-13T06:32:22;9.70;99.90
14210;DHT22;7188;56.070;12.698;2023-10-13T06:35:00;9.70;99.90
14210;DHT22;7188;56.070;12.698;2023-10-13T06:37:44;9.70;99.90
14210;DHT22;7188;56.070;12.698;2023-10-13T06:40:11;9.70;99.90
14210;DHT22;7188;56.070;12.698;2023-10-13T06:43:00;9.70;99.90
14210;DHT22;7188;56.070;12.698;2023-10-13T06:45:43;9.70;99.90
14210;DHT22;7188;56.070;12.698;2023-10-13T06:48:15;9.70;99.90
14210;DHT22;7188;56.070;12.698;2023-10-13T06:50:48;9.70;99.90
14210;DHT22;7188;56.070;12.698;2023-10-13T06:53:14;9.60;99.90
14210;DHT22;7188;56.070;12.698;2023-10-13T06:55:41;9.70;99.90
14210;DHT22;7188;56.070;12.698;2023-10-13T06:58:12;9.70;99.90
14210;DHT22;7188;56.070;12.698;2023-10-13T07:00:40;9.70;99.90
14210;DHT22;7188;56.070;12.698;2023-10-13T07:03:06;9.70;99.90
14210;DHT22;7188;56.070;12.698;2023-10-13T07:05:36;9.80;99.90
14210;DHT22;7188;56.070;12.698;2023-10-13T07:08:04;9.80;99.90
14210;DHT22;7188;56.070;12.698;2023-10-13T07:10:30;9.90;99.90
14210;DHT22;7188;56.070;12.698;2023-10-13T07:12:57;10.00;99.90
14210;DHT22;7188;56.070;12.698;2023-10-13T07:15:26;10.00;99.90
14210;DHT22;7188;56.070;12.698;2023-10-13T07:17:54;10.10;99.90
14210;DHT22;7188;56.070;12.698;2023-10-13T07:20:25;10.20;99.90
14210;DHT22;7188;56.070;12.698;2023-10-13T07:22:54;10.20;99.90
14210;DHT22;7188;56.070;12.698;2023-10-13T07:25:33;10.30;99.90
14210;DHT22;7188;56.070;12.698;2023-10-13T07:28:00;10.50;99.90
14210;DHT22;7188;56.070;12.698;2023-10-13T07:30:26;10.50;99.90
14210;DHT22;7188;56.070;12.698;2023-10-13T07:32:53;10.50;99.90
14210;DHT22;7188;56.070;12.698;2023-10-13T07:35:23;10.50;99.90
14210;DHT22;7188;56.070;12.698;2023-10-13T07:37:52;10.50;99.90
14210;DHT22;7188;56.070;12.698;2023-10-13T07:40:19;10.50;99.90
14210;DHT22;7188;56.070;12.698;2023-10-13T07:42:51;10.60;99.90
14210;DHT22;7188;56.070;12.698;2023-10-13T07:45:17;10.60;99.90
14210;DHT22;7188;56.070;12.698;2023-10-13T07:47:53;10.70;99.90
14210;DHT22;7188;56.070;12.698;2023-10-13T07:50:19;10.70;99.90
14210;DHT22;7188;56.070;12.698;2023-10-13T07:52:51;10.80;99.90
14210;DHT22;7188;56.070;12.698;2023-10-13T07:55:45;10.90;99.90
14210;DHT22;7188;56.070;12.698;2023-10-13T07:58:12;10.80;99.90
14210;DHT22;7188;56.070;12.698;2023-10-13T08:00:39;10.90;99.90
14210;DHT22;7188;56.070;12.698;2023-10-13T08:03:11;10.90;99.90
14210;DHT22;7188;56.070;12.698;2023-10-13T08:05:40;10.90;99.90
14210;DHT22;7188;56.070;12.698;2023-10-13T08:08:31;11.00;99.90
14210;DHT22;7188;56.070;12.698;2023-10-13T08:11:10;10.90;99.90
14210;DHT22;7188;56.070;12.698;2023-10-13T08:14:06;11.00;99.90
14210;DHT22;7188;56.070;12.698;2023-10-13T08:16:43;11.00;99.90
14210;DHT22;7188;56.070;12.698;2023-10-13T08:19:19;11.00;99.90
14210;DHT22;7188;56.070;12.698;2023-10-13T08:21:47;11.00;99.90
14210;DHT22;7188;56.070;12.698;2023-10-13T08:24:23;11.00;99.90
14210;DHT22;7188;56.070;12.698;2023-10-13T08:26:55;11.00;99.90
14210;DHT22;7188;56.070;12.698;2023-10-13T08:29:42;11.10;99.90
14210;DHT22;7188;56.070;12.698;2023-10-13T08:32:34;11.10;99.90
14210;DHT22;7188;56.070;12.698;2023-10-13T08:35:15;11.10;99.90
14210;DHT22;7188;56.070;12.698;2023-10-13T08:38:10;11.20;99.90
14210;DHT22;7188;56.070;12.698;2023-10-13T08:40:43;11.20;99.90
14210;DHT22;7188;56.070;12.698;2023-10-13T08:43:32;11.20;99.90
14210;DHT22;7188;56.070;12.698;2023-10-13T08:46:09;11.20;99.90
14210;DHT22;7188;56.070;12.698;2023-10-13T08:48:50;11.20;99.90
14210;DHT22;7188;56.070;12.698;2023-10-13T08:51:17;11.20;99.90
14210;DHT22;7188;56.070;12.698;2023-10-13T08:54:02;11.20;99.90
14210;DHT22;7188;56.070;12.698;2023-10-13T08:56:44;11.20;99.90
14210;DHT22;7188;56.070;12.698;2023-10-13T08:59:13;11.20;99.90
14210;DHT22;7188;56.070;12.698;2023-10-13T09:01:47;11.20;99.90
14210;DHT22;7188;56.070;12.698;2023-10-13T09:04:27;11.20;99.90
14210;DHT22;7188;56.070;12.698;2023-10-13T09:07:12;11.20;99.90
14210;DHT22;7188;56.070;12.698;2023-10-13T09:09:53;11.20;99.90
14210;DHT22;7188;56.070;12.698;2023-10-13T09:12:30;11.20;99.90
14210;DHT22;7188;56.070;12.698;2023-10-13T09:14:59;11.10;99.90
14210;DHT22;7188;56.070;12.698;2023-10-13T09:17:32;11.10;99.90
14210;DHT22;7188;56.070;12.698;2023-10-13T09:20:06;11.10;99.90
14210;DHT22;7188;56.070;12.698;2023-10-13T09:22:55;11.20;99.90
14210;DHT22;7188;56.070;12.698;2023-10-13T09:25:38;11.20;99.90
14210;DHT22;7188;56.070;12.698;2023-10-13T09:28:14;11.20;99.90
14210;DHT22;7188;56.070;12.698;2023-10-13T09:30:51;11.10;99.90
14210;DHT22;7188;56.070;12.698;2023-10-13T09:33:25;11.20;99.90
14210;DHT22;7188;56.070;12.698;2023-10-13T09:35:58;11.20;99.90
14210;DHT22;7188;56.070;12.698;2023-10-13T09:38:29;11.20;99.90
14210;DHT22;7188;56.070;12.698;2023-10-13T09:40:55;11.30;99.90
14210;DHT22;7188;56.070;12.698;2023-10-13T09:43:24;11.30;99.90
14210;DHT22;7188;56.070;12.698;2023-10-13T09:45:53;11.30;99.90
14210;DHT22;7188;56.070;12.698;2023-10-13T09:48:34;11.40;99.90
14210;DHT22;7188;56.070;12.698;2023-10-13T09:51:04;11.40;99.90
14210;DHT22;7188;56.070;12.698;2023-10-13T09:53:35;11.50;99.90
14210;DHT22;7188;56.070;12.698;2023-10-13T09:56:26;11.50;99.90
14210;DHT22;7188;56.070;12.698;2023-10-13T09:59:09;11.60;99.90
14210;DHT22;7188;56.070;12.698;2023-10-13T10:01:43;11.60;99.90
14210;DHT22;7188;56.070;12.698;2023-10-13T10:04:16;11.70;99.90
14210;DHT22;7188;56.070;12.698;2023-10-13T10:06:59;11.70;99.90
14210;DHT22;7188;56.070;12.698;2023-10-13T10:09:33;11.80;99.90
14210;DHT22;7188;56.070;12.698;2023-10-13T10:15:01;12.00;99.90
14210;DHT22;7188;56.070;12.698;2023-10-13T10:17:46;12.10;99.90
14210;DHT22;7188;56.070;12.698;2023-10-13T10:20:12;12.20;99.90
14210;DHT22;7188;56.070;12.698;2023-10-13T10:22:58;12.30;99.90
14210;DHT22;7188;56.070;12.698;2023-10-13T10:25:31;12.40;99.90
14210;DHT22;7188;56.070;12.698;2023-10-13T10:28:05;12.50;99.90
14210;DHT22;7188;56.070;12.698;2023-10-13T10:30:36;12.50;99.90
14210;DHT22;7188;56.070;12.698;2023-10-13T10:33:04;12.60;99.90
14210;DHT22;7188;56.070;12.698;2023-10-13T10:35:38;12.70;99.90
14210;DHT22;7188;56.070;12.698;2023-10-13T10:38:15;12.80;99.90
14210;DHT22;7188;56.070;12.698;2023-10-13T10:41:02;12.90;99.90
14210;DHT22;7188;56.070;12.698;2023-10-13T10:46:28;13.10;99.90
14210;DHT22;7188;56.070;12.698;2023-10-13T10:48:57;13.10;99.90
14210;DHT22;7188;56.070;12.698;2023-10-13T10:51:27;13.20;99.90
14210;DHT22;7188;56.070;12.698;2023-10-13T10:54:00;13.20;99.90
14210;DHT22;7188;56.070;12.698;2023-10-13T10:56:38;13.20;99.90
14210;DHT22;7188;56.070;12.698;2023-10-13T10:59:05;13.30;99.90
14210;DHT22;7188;56.070;12.698;2023-10-13T11:01:33;13.30;99.90
14210;DHT22;7188;56.070;12.698;2023-10-13T11:04:13;13.30;99.90
14210;DHT22;7188;56.070;12.698;2023-10-13T11:07:20;13.30;99.90
14210;DHT22;7188;56.070;12.698;2023-10-13T11:09:46;13.40;99.90
14210;DHT22;7188;56.070;12.698;2023-10-13T11:12:13;13.50;99.90
14210;DHT22;7188;56.070;12.698;2023-10-13T11:14:41;13.50;99.90
14210;DHT22;7188;56.070;12.698;2023-10-13T11:17:08;13.60;99.90
14210;DHT22;7188;56.070;12.698;2023-10-13T11:19:46;13.70;99.90
14210;DHT22;7188;56.070;12.698;2023-10-13T11:22:16;13.80;99.90
14210;DHT22;7188;56.070;12.698;2023-10-13T11:25:05;13.80;99.90
14210;DHT22;7188;56.070;12.698;2023-10-13T11:27:38;13.90;99.90
14210;DHT22;7188;56.070;12.698;2023-10-13T11:30:10;13.90;99.90
14210;DHT22;7188;56.070;12.698;2023-10-13T11:32:39;13.90;99.90
14210;DHT22;7188;56.070;12.698;2023-10-13T11:35:08;14.00;99.90
14210;DHT22;7188;56.070;12.698;2023-10-13T11:37:45;14.00;99.90
14210;DHT22;7188;56.070;12.698;2023-10-13T11:40:32;14.00;99.90
14210;DHT22;7188;56.070;12.698;2023-10-13T11:43:33;14.10;99.90
14210;DHT22;7188;56.070;12.698;2023-10-13T11:46:12;14.10;99.90
14210;DHT22;7188;56.070;12.698;2023-10-13T11:48:40;14.20;99.90
14210;DHT22;7188;56.070;12.698;2023-10-13T11:51:08;14.20;99.90
14210;DHT22;7188;56.070;12.698;2023-10-13T11:53:38;14.30;99.90
14210;DHT22;7188;56.070;12.698;2023-10-13T11:56:08;14.30;99.90
14210;DHT22;7188;56.070;12.698;2023-10-13T11:58:38;14.40;99.90
14210;DHT22;7188;56.070;12.698;2023-10-13T12:01:04;14.40;99.90
14210;DHT22;7188;56.070;12.698;2023-10-13T12:03:39;14.50;99.90
14210;DHT22;7188;56.070;12.698;2023-10-13T12:06:24;14.50;99.90
14210;DHT22;7188;56.070;12.698;2023-10-13T12:09:03;14.50;99.90
14210;DHT22;7188;56.070;12.698;2023-10-13T12:11:45;14.60;99.90
14210;DHT22;7188;56.070;12.698;2023-10-13T12:14:12;14.60;99.90
14210;DHT22;7188;56.070;12.698;2023-10-13T12:16:53;14.60;99.90
14210;DHT22;7188;56.070;12.698;2023-10-13T12:19:23;14.60;99.90
14210;DHT22;7188;56.070;12.698;2023-10-13T12:21:58;14.60;99.90
14210;DHT22;7188;56.070;12.698;2023-10-13T12:24:29;14.60;99.90
14210;DHT22;7188;56.070;12.698;2023-10-13T12:27:01;14.70;99.90
14210;DHT22;7188;56.070;12.698;2023-10-13T12:29:28;14.70;99.90
14210;DHT22;7188;56.070;12.698;2023-10-13T12:31:57;14.70;99.90
14210;DHT22;7188;56.070;12.698;2023-10-13T12:34:40;14.70;99.90
14210;DHT22;7188;56.070;12.698;2023-10-13T12:37:24;14.70;99.90
14210;DHT22;7188;56.070;12.698;2023-10-13T12:40:06;14.70;99.90
14210;DHT22;7188;56.070;12.698;2023-10-13T12:42:54;14.70;99.90
14210;DHT22;7188;56.070;12.698;2023-10-13T12:45:39;14.80;99.90
14210;DHT22;7188;56.070;12.698;2023-10-13T12:48:23;14.80;99.90
14210;DHT22;7188;56.070;12.698;2023-10-13T12:51:08;14.80;99.90
14210;DHT22;7188;56.070;12.698;2023-10-13T12:53:55;14.80;99.90
14210;DHT22;7188;56.070;12.698;2023-10-13T12:56:30;14.70;99.90
14210;DHT22;7188;56.070;12.698;2023-10-13T12:58:55;14.80;99.90
14210;DHT22;7188;56.070;12.698;2023-10-13T13:01:22;14.80;99.90
14210;DHT22;7188;56.070;12.698;2023-10-13T13:03:50;14.80;99.90
14210;DHT22;7188;56.070;12.698;2023-10-13T13:06:20;14.80;99.90
14210;DHT22;7188;56.070;12.698;2023-10-13T13:08:52;14.80;99.90
14210;DHT22;7188;56.070;12.698;2023-10-13T13:11:18;14.80;99.90
14210;DHT22;7188;56.070;12.698;2023-10-13T13:13:44;14.80;99.90
14210;DHT22;7188;56.070;12.698;2023-10-13T13:16:12;14.80;99.90
14210;DHT22;7188;56.070;12.698;2023-10-13T13:18:38;14.80;99.90
14210;DHT22;7188;56.070;12.698;2023-10-13T13:21:04;14.90;99.90
14210;DHT22;7188;56.070;12.698;2023-10-13T13:23:32;15.00;99.90
14210;DHT22;7188;56.070;12.698;2023-10-13T13:26:00;14.90;99.90
14210;DHT22;7188;56.070;12.698;2023-10-13T13:28:26;15.00;99.90
14210;DHT22;7188;56.070;12.698;2023-10-13T13:30:54;15.00;99.90
14210;DHT22;7188;56.070;12.698;2023-10-13T13:33:20;15.00;99.90
14210;DHT22;7188;56.070;12.698;2023-10-13T13:35:53;15.00;99.90
14210;DHT22;7188;56.070;12.698;2023-10-13T13:38:19;15.10;99.90
14210;DHT22;7188;56.070;12.698;2023-10-13T13:40:48;15.10;99.90
14210;DHT22;7188;56.070;12.698;2023-10-13T13:43:20;15.10;99.90
14210;DHT22;7188;56.070;12.698;2023-10-13T13:46:03;15.20;99.90
14210;DHT22;7188;56.070;12.698;2023-10-13T13:48:43;15.20;99.90
14210;DHT22;7188;56.070;12.698;2023-10-13T13:51:13;15.20;99.90
14210;DHT22;7188;56.070;12.698;2023-10-13T13:53:43;15.20;99.90
14210;DHT22;7188;56.070;12.698;2023-10-13T13:56:14;15.20;99.90
14210;DHT22;7188;56.070;12.698;2023-10-13T13:58:44;15.20;99.90
14210;DHT22;7188;56.070;12.698;2023-10-13T14:01:10;15.20;99.90
14210;DHT22;7188;56.070;12.698;2023-10-13T14:03:44;15.20;99.90
14210;DHT22;7188;56.070;12.698;2023-10-13T14:06:12;15.30;99.90
14210;DHT22;7188;56.070;12.698;2023-10-13T14:08:45;15.20;99.90
14210;DHT22;7188;56.070;12.698;2023-10-13T14:11:14;15.30;99.90
14210;DHT22;7188;56.070;12.698;2023-10-13T14:13:51;15.20;99.90
14210;DHT22;7188;56.070;12.698;2023-10-13T14:16:21;15.20;99.90
14210;DHT22;7188;56.070;12.698;2023-10-13T14:18:50;15.20;99.90
14210;DHT22;7188;56.070;12.698;2023-10-13T14:21:16;15.20;99.90
14210;DHT22;7188;56.070;12.698;2023-10-13T14:23:50;15.20;99.90
14210;DHT22;7188;56.070;12.698;2023-10-13T14:26:17;15.20;99.90
14210;DHT22;7188;56.070;12.698;2023-10-13T14:28:46;15.20;99.90
14210;DHT22;7188;56.070;12.698;2023-10-13T14:31:31;15.20;99.90
14210;DHT22;7188;56.070;12.698;2023-10-13T14:33:58;15.20;99.90
14210;DHT22;7188;56.070;12.698;2023-10-13T14:36:24;15.20;99.90
14210;DHT22;7188;56.070;12.698;2023-10-13T14:38:54;15.20;99.90
14210;DHT22;7188;56.070;12.698;2023-10-13T14:41:20;15.20;99.90
14210;DHT22;7188;56.070;12.698;2023-10-13T14:43:46;15.20;99.90
14210;DHT22;7188;56.070;12.698;2023-10-13T14:46:23;15.30;99.90
14210;DHT22;7188;56.070;12.698;2023-10-13T14:48:52;15.30;99.90
14210;DHT22;7188;56.070;12.698;2023-10-13T14:51:18;15.20;99.90
14210;DHT22;7188;56.070;12.698;2023-10-13T14:53:47;15.20;99.90
14210;DHT22;7188;56.070;12.698;2023-10-13T14:56:15;15.20;99.90
14210;DHT22;7188;56.070;12.698;2023-10-13T14:58:41;15.20;99.90
14210;DHT22;7188;56.070;12.698;2023-10-13T15:01:13;15.20;99.90
14210;DHT22;7188;56.070;12.698;2023-10-13T15:03:45;15.20;99.90
14210;DHT22;7188;56.070;12.698;2023-10-13T15:06:20;15.20;99.90
14210;DHT22;7188;56.070;12.698;2023-10-13T15:08:49;15.20;99.90
14210;DHT22;7188;56.070;12.698;2023-10-13T15:11:15;15.20;99.90
14210;DHT22;7188;56.070;12.698;2023-10-13T15:13:41;15.20;99.90
14210;DHT22;7188;56.070;12.698;2023-10-13T15:16:21;15.30;99.90
14210;DHT22;7188;56.070;12.698;2023-10-13T15:18:48;15.20;99.90
14210;DHT22;7188;56.070;12.698;2023-10-13T15:21:22;15.30;99.90
14210;DHT22;7188;56.070;12.698;2023-10-13T15:23:48;15.30;99.90
14210;DHT22;7188;56.070;12.698;2023-10-13T15:26:20;15.30;99.90
14210;DHT22;7188;56.070;12.698;2023-10-13T15:28:49;15.30;99.90
14210;DHT22;7188;56.070;12.698;2023-10-13T15:31:18;15.40;99.90
14210;DHT22;7188;56.070;12.698;2023-10-13T15:34:03;15.40;99.90
14210;DHT22;7188;56.070;12.698;2023-10-13T15:36:43;15.40;99.90
14210;DHT22;7188;56.070;12.698;2023-10-13T15:39:12;15.50;99.90
14210;DHT22;7188;56.070;12.698;2023-10-13T15:41:41;15.50;99.90
14210;DHT22;7188;56.070;12.698;2023-10-13T15:44:13;15.50;99.90
14210;DHT22;7188;56.070;12.698;2023-10-13T15:46:39;15.60;99.90
14210;DHT22;7188;56.070;12.698;2023-10-13T15:49:05;15.70;99.90
14210;DHT22;7188;56.070;12.698;2023-10-13T15:51:34;15.70;99.90
14210;DHT22;7188;56.070;12.698;2023-10-13T15:54:02;15.70;99.90
14210;DHT22;7188;56.070;12.698;2023-10-13T15:56:28;15.80;99.90
14210;DHT22;7188;56.070;12.698;2023-10-13T15:58:58;15.90;99.90
14210;DHT22;7188;56.070;12.698;2023-10-13T16:01:26;16.00;99.90
14210;DHT22;7188;56.070;12.698;2023-10-13T16:03:52;16.10;99.90
14210;DHT22;7188;56.070;12.698;2023-10-13T16:06:18;16.20;99.90
14210;DHT22;7188;56.070;12.698;2023-10-13T16:08:45;16.20;99.90
14210;DHT22;7188;56.070;12.698;2023-10-13T16:11:14;16.20;99.90
14210;DHT22;7188;56.070;12.698;2023-10-13T16:13:49;16.20;99.90
14210;DHT22;7188;56.070;12.698;2023-10-13T16:16:18;16.30;99.90
14210;DHT22;7188;56.070;12.698;2023-10-13T16:18:45;16.30;99.90
14210;DHT22;7188;56.070;12.698;2023-10-13T16:21:12;16.30;99.90
14210;DHT22;7188;56.070;12.698;2023-10-13T16:23:48;16.40;99.90
14210;DHT22;7188;56.070;12.698;2023-10-13T16:26:14;16.40;99.90